createdAt,value
2022-11-13T00:00:09.856Z,78.10
2022-11-13T00:03:31.413Z,70.30
2022-11-13T00:06:58.793Z,67.50
2022-11-13T00:10:15.372Z,66.90
2022-11-13T00:13:17.275Z,69.60
2022-11-13T00:16:21.575Z,70.50
2022-11-13T00:19:23.406Z,67.10
2022-11-13T00:22:25.266Z,67.70
2022-11-13T00:25:27.004Z,68.30
2022-11-13T00:28:29.084Z,73.70
2022-11-13T00:31:31.248Z,63.60
2022-11-13T00:34:47.232Z,67.70
2022-11-13T00:37:49.912Z,79.40
2022-11-13T00:43:53.449Z,69.30
2022-11-13T00:46:55.252Z,72.30
2022-11-13T00:52:58.633Z,69.20
2022-11-13T00:56:00.813Z,74.90
2022-11-13T00:59:02.718Z,70.50
2022-11-13T01:02:04.472Z,73.70
2022-11-13T01:05:06.487Z,74.80
2022-11-13T01:08:09.510Z,70.10
2022-11-13T01:11:17.120Z,75.20
2022-11-13T01:14:18.696Z,73.70
2022-11-13T01:20:23.761Z,73.60
2022-11-13T01:23:25.475Z,76.20
2022-11-13T01:26:29.990Z,77.70
2022-11-13T01:29:32.103Z,80.40
2022-11-13T01:32:33.969Z,81.70
2022-11-13T01:35:35.603Z,82.00
2022-11-13T01:41:40.561Z,78.80
2022-11-13T01:44:55.059Z,74.30
2022-11-13T01:47:56.886Z,75.60
2022-11-13T01:50:58.946Z,63.80
2022-11-13T01:54:03.692Z,78.90
2022-11-13T01:57:09.244Z,70.80
2022-11-13T02:00:12.534Z,73.90
2022-11-13T02:03:14.345Z,76.80
2022-11-13T02:06:16.540Z,80.60
2022-11-13T02:09:30.988Z,68.40
2022-11-13T02:12:35.314Z,71.00
2022-11-13T02:15:37.437Z,67.10
2022-11-13T02:18:39.940Z,71.80
2022-11-13T02:21:56.523Z,72.00
2022-11-13T02:25:00.456Z,74.00
2022-11-13T02:28:02.405Z,75.30
2022-11-13T02:31:09.176Z,72.90
2022-11-13T02:34:10.865Z,74.20
2022-11-13T02:37:12.537Z,73.60
2022-11-13T02:43:16.041Z,76.70
2022-11-13T02:46:17.665Z,75.10
2022-11-13T02:52:21.049Z,73.30
2022-11-13T02:55:22.882Z,68.60
2022-11-13T02:58:24.693Z,73.30
2022-11-13T03:01:26.430Z,75.20
2022-11-13T03:04:44.048Z,76.40
2022-11-13T03:07:49.830Z,73.60
2022-11-13T03:10:55.161Z,79.90
2022-11-13T03:13:56.839Z,82.50
2022-11-13T03:16:58.600Z,71.80
2022-11-13T03:26:06.534Z,71.00
2022-11-13T03:29:08.269Z,70.80
2022-11-13T03:32:09.996Z,77.20
2022-11-13T03:35:11.719Z,73.40
2022-11-13T03:41:15.060Z,81.90
2022-11-13T03:44:16.862Z,77.40
2022-11-13T03:47:18.673Z,76.20
2022-11-13T03:53:21.939Z,73.60
2022-11-13T03:59:25.301Z,75.20
2022-11-13T04:02:27.014Z,73.70
2022-11-13T04:08:30.552Z,73.30
2022-11-13T04:11:32.637Z,79.60
2022-11-13T04:14:34.305Z,83.20
2022-11-13T04:20:37.640Z,75.90
2022-11-13T04:23:39.250Z,82.80
2022-11-13T04:29:42.548Z,78.80
2022-11-13T04:35:46.206Z,77.60
2022-11-13T04:38:47.768Z,78.60
2022-11-13T04:45:10.308Z,77.40
2022-11-13T04:48:12.040Z,88.90
2022-11-13T04:51:13.824Z,84.30
2022-11-13T04:54:15.788Z,80.10
2022-11-13T04:57:17.420Z,81.90
2022-11-13T05:00:19.447Z,81.00
2022-11-13T05:03:21.184Z,84.90
2022-11-13T05:06:23.251Z,82.40
2022-11-13T05:09:24.969Z,80.20
2022-11-13T05:12:26.644Z,73.30
2022-11-13T05:18:30.550Z,70.70
2022-11-13T05:21:36.741Z,69.50
2022-11-13T05:24:38.436Z,78.60
2022-11-13T05:30:41.514Z,74.10
2022-11-13T05:33:43.581Z,77.30
2022-11-13T05:36:45.516Z,80.60
2022-11-13T05:39:47.110Z,79.50
2022-11-13T05:45:50.224Z,82.00
2022-11-13T05:51:55.662Z,85.90
2022-11-13T05:54:57.375Z,84.30
2022-11-13T06:01:15.688Z,87.90
2022-11-13T06:04:17.505Z,99.50
2022-11-13T06:07:19.964Z,91.80
2022-11-13T06:10:21.625Z,97.60
2022-11-13T06:16:27.483Z,90.10
2022-11-13T06:19:29.388Z,87.40
2022-11-13T06:22:31.080Z,98.90
2022-11-13T06:25:32.906Z,103.20
2022-11-13T06:28:34.949Z,96.20
2022-11-13T06:31:37.439Z,95.60
2022-11-13T06:34:39.222Z,102.80
2022-11-13T06:37:41.077Z,101.20
2022-11-13T06:40:42.732Z,105.90
2022-11-13T06:46:46.207Z,100.80
2022-11-13T06:52:49.645Z,103.50
2022-11-13T06:55:51.482Z,100.60
2022-11-13T06:58:55.220Z,100.50
2022-11-13T07:01:56.950Z,107.40
2022-11-13T07:04:59.056Z,110.90
2022-11-13T07:08:00.862Z,107.60
2022-11-13T07:11:02.579Z,102.10
2022-11-13T07:14:04.398Z,109.00
2022-11-13T07:17:09.579Z,109.70
2022-11-13T07:20:12.290Z,99.00
2022-11-13T07:23:14.137Z,97.50
2022-11-13T07:26:16.180Z,104.10
2022-11-13T07:29:17.806Z,101.40
2022-11-13T07:35:21.180Z,95.50
2022-11-13T07:41:24.578Z,97.30
2022-11-13T07:44:53.019Z,86.50
2022-11-13T07:47:48.184Z,84.20
2022-11-13T07:50:50.624Z,92.50
2022-11-13T07:53:52.442Z,95.50
2022-11-13T07:56:54.228Z,85.00
2022-11-13T07:59:56.081Z,80.00
2022-11-13T08:02:57.675Z,86.00
2022-11-13T08:09:05.384Z,91.60
2022-11-13T08:12:07.283Z,87.60
2022-11-13T08:15:13.347Z,87.70
2022-11-13T08:18:15.678Z,95.10
2022-11-13T08:21:17.552Z,92.30
2022-11-13T08:24:19.201Z,97.20
2022-11-13T08:30:24.881Z,83.30
2022-11-13T08:33:27.131Z,75.30
2022-11-13T08:36:28.761Z,81.60
2022-11-13T08:42:31.988Z,81.30
2022-11-13T08:48:35.274Z,85.50
2022-11-13T08:51:37.190Z,100.70
2022-11-13T08:54:38.989Z,96.40
2022-11-13T08:57:40.624Z,87.60
2022-11-13T09:03:44.135Z,93.50
2022-11-13T09:06:45.907Z,94.70
2022-11-13T09:12:49.573Z,87.50
2022-11-13T09:15:51.162Z,95.20
2022-11-13T09:21:54.809Z,93.90
2022-11-13T09:24:56.701Z,90.30
2022-11-13T09:31:05.213Z,84.70
2022-11-13T09:34:08.076Z,85.40
2022-11-13T09:37:09.867Z,84.50
2022-11-13T09:43:38.338Z,69.80
2022-11-13T09:46:47.834Z,66.60
2022-11-13T09:49:53.102Z,67.50
2022-11-13T09:52:55.261Z,65.50
2022-11-13T09:56:15.484Z,63.70
2022-11-13T09:59:23.725Z,61.10
2022-11-13T10:02:47.365Z,61.20
2022-11-13T10:05:52.989Z,65.60
2022-11-13T10:09:01.753Z,56.60
2022-11-13T10:12:07.788Z,62.30
2022-11-13T10:15:10.857Z,67.40
2022-11-13T10:18:26.652Z,59.20
2022-11-13T10:21:42.726Z,61.20
2022-11-13T10:24:45.203Z,63.30
2022-11-13T10:27:54.983Z,56.50
2022-11-13T10:30:56.901Z,60.30
2022-11-13T10:33:59.172Z,60.80
2022-11-13T10:37:39.910Z,64.80
2022-11-13T10:40:41.756Z,60.30
2022-11-13T10:44:19.888Z,59.70
2022-11-13T10:47:49.006Z,60.80
2022-11-13T10:50:53.729Z,54.70
2022-11-13T10:53:56.196Z,57.90
2022-11-13T10:57:02.538Z,56.80
2022-11-13T11:00:23.388Z,56.60
2022-11-13T11:03:25.942Z,58.40
2022-11-13T11:07:04.990Z,57.10
2022-11-13T11:09:57.550Z,57.30
2022-11-13T11:16:04.446Z,52.70
2022-11-13T11:19:09.813Z,53.10
2022-11-13T11:22:23.065Z,56.10
2022-11-13T11:25:50.108Z,53.10
2022-11-13T11:29:29.503Z,52.30
2022-11-13T11:33:02.094Z,53.90
2022-11-13T11:36:22.192Z,55.10
2022-11-13T11:39:30.324Z,51.90
2022-11-13T11:42:38.912Z,53.10
2022-11-13T11:45:45.047Z,52.70
2022-11-13T11:48:46.736Z,51.40
2022-11-13T11:52:37.877Z,56.20
2022-11-13T11:55:53.760Z,53.50
2022-11-13T11:59:10.376Z,50.80
2022-11-13T12:02:27.135Z,50.90
2022-11-13T12:06:08.110Z,49.40
2022-11-13T12:09:33.306Z,52.60
2022-11-13T12:12:41.062Z,59.10
2022-11-13T12:16:05.501Z,60.70
2022-11-13T12:19:36.331Z,55.90
2022-11-13T12:22:48.642Z,54.70
2022-11-13T12:26:31.051Z,50.70
2022-11-13T12:29:46.452Z,50.00
2022-11-13T12:33:07.000Z,55.10
2022-11-13T12:36:11.454Z,54.80
2022-11-13T12:39:38.412Z,50.90
2022-11-13T12:42:54.593Z,54.50
2022-11-13T12:46:01.361Z,57.60
2022-11-13T12:49:14.263Z,52.00
2022-11-13T12:52:16.029Z,54.10
2022-11-13T12:55:32.505Z,55.00
2022-11-13T12:58:34.190Z,55.10
2022-11-13T13:01:46.981Z,52.60
2022-11-13T13:05:14.648Z,54.20
2022-11-13T13:08:46.886Z,54.30
2022-11-13T13:12:18.117Z,55.90
2022-11-13T13:15:56.465Z,57.30
2022-11-13T13:19:24.976Z,57.00
2022-11-13T13:22:32.493Z,55.10
2022-11-13T13:25:35.563Z,59.00
2022-11-13T13:28:40.260Z,58.40
2022-11-13T13:32:15.470Z,62.30
2022-11-13T13:35:30.009Z,63.40
2022-11-13T13:38:53.489Z,61.80
2022-11-13T13:42:22.795Z,66.20
2022-11-13T13:45:43.437Z,63.30
2022-11-13T13:48:46.816Z,63.60
2022-11-13T13:51:51.808Z,58.10
2022-11-13T13:54:53.889Z,60.80
2022-11-13T13:57:55.581Z,57.10
2022-11-13T14:01:18.130Z,64.10
2022-11-13T14:04:22.806Z,69.60
2022-11-13T14:07:29.860Z,75.50
2022-11-13T14:10:31.470Z,72.70
2022-11-13T14:19:36.952Z,80.40
2022-11-13T14:22:40.046Z,86.00
2022-11-13T14:25:42.371Z,91.40
2022-11-13T14:28:54.909Z,99.90
2022-11-13T14:32:03.290Z,101.70
2022-11-13T14:35:05.703Z,112.60
2022-11-13T14:38:19.151Z,124.90
2022-11-13T14:41:24.973Z,159.70
2022-11-13T14:44:32.603Z,112.60
2022-11-13T14:47:37.719Z,111.40
2022-11-13T14:50:52.934Z,109.50
2022-11-13T14:54:07.587Z,117.60
2022-11-13T14:57:13.181Z,118.90
2022-11-13T15:00:20.438Z,121.90
2022-11-13T15:03:22.298Z,112.60
2022-11-13T15:06:26.814Z,106.80
2022-11-13T15:09:30.221Z,113.30
2022-11-13T15:12:31.934Z,139.10
2022-11-13T15:18:35.762Z,155.50
2022-11-13T15:21:37.661Z,118.30
2022-11-13T15:24:39.528Z,109.70
2022-11-13T15:27:43.259Z,108.80
2022-11-13T15:30:53.159Z,106.20
2022-11-13T15:33:55.707Z,105.70
2022-11-13T15:36:57.288Z,113.90
2022-11-13T15:43:01.687Z,120.00
2022-11-13T15:46:03.951Z,122.20
2022-11-13T15:49:05.585Z,121.70
2022-11-13T15:55:27.834Z,110.90
2022-11-13T15:58:33.704Z,120.60
2022-11-13T16:01:36.480Z,117.00
2022-11-13T16:04:55.541Z,120.30
2022-11-13T16:07:58.674Z,140.40
2022-11-13T16:11:00.880Z,174.30
2022-11-13T16:14:02.514Z,140.70
2022-11-13T16:20:16.785Z,148.30
2022-11-13T16:23:18.420Z,175.00
2022-11-13T16:29:24.559Z,143.60
2022-11-13T16:32:26.475Z,147.70
2022-11-13T16:35:28.106Z,134.90
2022-11-13T16:44:33.820Z,144.60
2022-11-13T16:47:35.544Z,139.80
2022-11-13T16:53:41.346Z,135.40
2022-11-13T16:59:44.684Z,139.70
2022-11-13T17:05:52.670Z,149.10
2022-11-13T17:08:56.613Z,148.20
2022-11-13T17:11:58.284Z,147.40
2022-11-13T17:18:01.854Z,177.70
2022-11-13T17:21:03.699Z,159.30
2022-11-13T17:24:05.789Z,144.30
2022-11-13T17:27:07.533Z,164.80
2022-11-13T17:33:11.794Z,147.60
2022-11-13T17:39:14.964Z,151.20
2022-11-13T17:45:18.634Z,153.00
2022-11-13T17:48:20.385Z,155.60
2022-11-13T17:51:22.194Z,155.40
2022-11-13T17:54:25.417Z,156.50
2022-11-13T17:57:27.340Z,145.50
2022-11-13T18:00:29.287Z,148.70
2022-11-13T18:03:31.627Z,158.60
2022-11-13T18:06:33.417Z,167.60
2022-11-13T18:15:39.489Z,145.00
2022-11-13T18:18:41.402Z,145.40
2022-11-13T18:21:44.079Z,159.70
2022-11-13T18:24:45.900Z,153.10
2022-11-13T18:27:47.726Z,139.10
2022-11-13T18:30:55.061Z,143.60
2022-11-13T18:33:59.852Z,153.40
2022-11-13T18:37:01.462Z,154.30
2022-11-13T18:43:05.289Z,146.60
2022-11-13T18:49:09.596Z,157.40
2022-11-13T18:52:11.410Z,159.50
2022-11-13T18:55:13.040Z,144.10
2022-11-13T19:01:25.413Z,154.70
2022-11-13T19:04:27.152Z,157.40
2022-11-13T19:10:30.354Z,166.30
2022-11-13T19:16:39.533Z,159.90
2022-11-13T19:19:42.382Z,156.50
2022-11-13T19:22:44.409Z,157.30
2022-11-13T19:25:48.980Z,148.20
2022-11-13T19:28:52.332Z,148.50
2022-11-13T19:31:56.333Z,144.60
2022-11-13T19:34:58.228Z,152.40
2022-11-13T19:38:01.152Z,157.30
2022-11-13T19:41:04.140Z,156.30
2022-11-13T19:44:06.828Z,148.10
2022-11-13T19:47:08.621Z,147.50
2022-11-13T19:50:10.444Z,147.10
2022-11-13T19:53:12.162Z,151.40
2022-11-13T19:59:16.387Z,155.70
2022-11-13T20:02:18.001Z,169.00
2022-11-13T20:05:19.635Z,164.30
2022-11-13T20:11:29.937Z,165.90
2022-11-13T20:14:35.698Z,169.90
2022-11-13T20:17:39.978Z,184.70
2022-11-13T20:20:44.414Z,145.70
2022-11-13T20:23:46.217Z,132.90
2022-11-13T20:26:48.166Z,134.00
2022-11-13T20:29:49.965Z,142.90
2022-11-13T20:32:51.693Z,138.60
2022-11-13T20:35:54.225Z,142.40
2022-11-13T20:38:57.110Z,144.90
2022-11-13T20:41:59.037Z,140.60
2022-11-13T20:45:01.550Z,142.30
2022-11-13T20:48:03.540Z,135.10
2022-11-13T20:51:07.417Z,126.80
2022-11-13T20:54:09.331Z,145.50
2022-11-13T20:57:11.302Z,145.50
2022-11-13T21:06:19.163Z,156.90
2022-11-13T21:09:20.967Z,180.50
2022-11-13T21:12:22.915Z,149.40
2022-11-13T21:15:24.575Z,138.70
2022-11-13T21:21:29.139Z,137.10
2022-11-13T21:24:31.257Z,136.30
2022-11-13T21:27:32.971Z,135.50
2022-11-13T21:30:34.866Z,111.60
2022-11-13T21:33:37.959Z,100.50
2022-11-13T21:36:39.553Z,109.60
2022-11-13T21:42:43.169Z,106.10
2022-11-13T21:45:44.859Z,105.20
2022-11-13T21:48:47.225Z,108.00
2022-11-13T21:51:49.109Z,107.40
2022-11-13T21:54:50.782Z,98.40
2022-11-13T22:00:54.206Z,112.00
2022-11-13T22:03:55.973Z,105.20
2022-11-13T22:06:57.904Z,104.30
2022-11-13T22:10:04.044Z,113.50
2022-11-13T22:13:08.705Z,104.20
2022-11-13T22:16:11.793Z,117.00
2022-11-13T22:19:23.833Z,121.70
2022-11-13T22:22:28.392Z,116.30
2022-11-13T22:28:33.041Z,102.10
2022-11-13T22:31:36.093Z,111.40
2022-11-13T22:34:38.734Z,124.80
2022-11-13T22:37:40.332Z,125.10
2022-11-13T22:40:42.218Z,119.10
2022-11-13T22:43:45.124Z,121.70
2022-11-13T22:46:46.717Z,111.50
2022-11-13T22:52:52.173Z,103.00
2022-11-13T22:55:53.716Z,115.60
2022-11-13T22:58:57.065Z,111.30
2022-11-13T23:01:58.703Z,121.10
2022-11-13T23:05:00.400Z,113.50
2022-11-13T23:11:03.769Z,65.30
2022-11-13T23:14:10.146Z,73.10
2022-11-13T23:17:11.984Z,66.70
2022-11-13T23:20:14.856Z,62.30
2022-11-13T23:26:19.447Z,69.90
2022-11-13T23:29:21.222Z,69.70
2022-11-13T23:32:23.556Z,79.30
2022-11-13T23:35:25.233Z,84.40
2022-11-13T23:41:29.178Z,75.50
2022-11-13T23:44:30.867Z,91.40
2022-11-13T23:50:34.450Z,69.50
2022-11-13T23:53:36.130Z,80.10
2022-11-13T23:59:39.483Z,78.00
